sensor_id;sensor_type;location;lat;lon;timestamp;P1;durP1;ratioP1;P2;durP2;ratioP2
30543;SDS011;43388;46.308;4.600;2022-08-07T00:00:54;6.03;;;1.55;;
30543;SDS011;43388;46.308;4.600;2022-08-07T00:03:20;1.55;;;1.15;;
30543;SDS011;43388;46.308;4.600;2022-08-07T00:05:48;2.55;;;1.27;;
30543;SDS011;43388;46.308;4.600;2022-08-07T00:08:17;2.90;;;1.80;;
30543;SDS011;43388;46.308;4.600;2022-08-07T00:10:43;4.28;;;1.92;;
30543;SDS011;43388;46.308;4.600;2022-08-07T00:13:09;1.73;;;1.10;;
30543;SDS011;43388;46.308;4.600;2022-08-07T00:15:35;2.40;;;1.40;;
30543;SDS011;43388;46.308;4.600;2022-08-07T00:18:01;2.30;;;1.17;;
30543;SDS011;43388;46.308;4.600;2022-08-07T00:20:27;1.40;;;1.30;;
30543;SDS011;43388;46.308;4.600;2022-08-07T00:22:53;2.13;;;1.50;;
30543;SDS011;43388;46.308;4.600;2022-08-07T00:25:20;3.40;;;1.60;;
30543;SDS011;43388;46.308;4.600;2022-08-07T00:27:48;3.10;;;1.85;;
30543;SDS011;43388;46.308;4.600;2022-08-07T00:30:14;2.00;;;1.65;;
30543;SDS011;43388;46.308;4.600;2022-08-07T00:32:40;3.47;;;1.58;;
30543;SDS011;43388;46.308;4.600;2022-08-07T00:35:06;3.72;;;1.70;;
30543;SDS011;43388;46.308;4.600;2022-08-07T00:37:33;2.45;;;1.40;;
30543;SDS011;43388;46.308;4.600;2022-08-07T00:39:59;3.28;;;1.45;;
30543;SDS011;43388;46.308;4.600;2022-08-07T00:42:25;4.70;;;1.50;;
30543;SDS011;43388;46.308;4.600;2022-08-07T00:44:51;4.45;;;1.50;;
30543;SDS011;43388;46.308;4.600;2022-08-07T00:47:17;4.55;;;1.40;;
30543;SDS011;43388;46.308;4.600;2022-08-07T00:49:43;5.10;;;1.70;;
30543;SDS011;43388;46.308;4.600;2022-08-07T00:52:09;1.30;;;1.20;;
30543;SDS011;43388;46.308;4.600;2022-08-07T00:54:35;3.42;;;1.63;;
30543;SDS011;43388;46.308;4.600;2022-08-07T00:57:01;2.05;;;1.45;;
30543;SDS011;43388;46.308;4.600;2022-08-07T00:59:29;3.33;;;1.65;;
30543;SDS011;43388;46.308;4.600;2022-08-07T01:01:55;4.55;;;1.80;;
30543;SDS011;43388;46.308;4.600;2022-08-07T01:04:22;2.90;;;1.58;;
30543;SDS011;43388;46.308;4.600;2022-08-07T01:06:48;5.10;;;1.65;;
30543;SDS011;43388;46.308;4.600;2022-08-07T01:09:14;4.25;;;1.40;;
30543;SDS011;43388;46.308;4.600;2022-08-07T01:11:41;1.52;;;1.42;;
30543;SDS011;43388;46.308;4.600;2022-08-07T01:14:07;2.13;;;1.30;;
30543;SDS011;43388;46.308;4.600;2022-08-07T01:16:33;3.33;;;1.65;;
30543;SDS011;43388;46.308;4.600;2022-08-07T01:19:00;2.83;;;1.40;;
30543;SDS011;43388;46.308;4.600;2022-08-07T01:21:26;2.85;;;1.70;;
30543;SDS011;43388;46.308;4.600;2022-08-07T01:23:53;3.45;;;1.52;;
30543;SDS011;43388;46.308;4.600;2022-08-07T01:26:19;1.55;;;1.42;;
30543;SDS011;43388;46.308;4.600;2022-08-07T01:28:47;2.38;;;1.50;;
30543;SDS011;43388;46.308;4.600;2022-08-07T01:31:15;1.77;;;1.20;;
30543;SDS011;43388;46.308;4.600;2022-08-07T01:33:41;5.05;;;1.42;;
30543;SDS011;43388;46.308;4.600;2022-08-07T01:36:07;1.42;;;1.35;;
30543;SDS011;43388;46.308;4.600;2022-08-07T01:38:36;4.20;;;1.50;;
30543;SDS011;43388;46.308;4.600;2022-08-07T01:41:02;2.83;;;1.60;;
30543;SDS011;43388;46.308;4.600;2022-08-07T01:43:30;5.70;;;1.70;;
30543;SDS011;43388;46.308;4.600;2022-08-07T01:45:56;1.55;;;1.45;;
30543;SDS011;43388;46.308;4.600;2022-08-07T01:48:23;2.53;;;1.70;;
30543;SDS011;43388;46.308;4.600;2022-08-07T01:50:54;5.13;;;1.55;;
30543;SDS011;43388;46.308;4.600;2022-08-07T01:53:21;2.85;;;1.52;;
30543;SDS011;43388;46.308;4.600;2022-08-07T01:55:49;1.48;;;1.33;;
30543;SDS011;43388;46.308;4.600;2022-08-07T01:58:17;3.15;;;2.05;;
30543;SDS011;43388;46.308;4.600;2022-08-07T02:00:45;2.13;;;1.80;;
30543;SDS011;43388;46.308;4.600;2022-08-07T02:03:12;3.38;;;1.83;;
30543;SDS011;43388;46.308;4.600;2022-08-07T02:05:43;2.38;;;1.73;;
30543;SDS011;43388;46.308;4.600;2022-08-07T02:08:13;3.95;;;1.77;;
30543;SDS011;43388;46.308;4.600;2022-08-07T02:10:40;2.97;;;1.60;;
30543;SDS011;43388;46.308;4.600;2022-08-07T02:13:06;3.30;;;1.95;;
30543;SDS011;43388;46.308;4.600;2022-08-07T02:15:34;4.35;;;2.13;;
30543;SDS011;43388;46.308;4.600;2022-08-07T02:18:01;3.05;;;2.00;;
30543;SDS011;43388;46.308;4.600;2022-08-07T02:20:29;3.75;;;2.08;;
30543;SDS011;43388;46.308;4.600;2022-08-07T02:22:55;4.85;;;2.30;;
30543;SDS011;43388;46.308;4.600;2022-08-07T02:25:23;2.05;;;1.95;;
30543;SDS011;43388;46.308;4.600;2022-08-07T02:27:49;2.72;;;2.20;;
30543;SDS011;43388;46.308;4.600;2022-08-07T02:30:15;2.50;;;1.90;;
30543;SDS011;43388;46.308;4.600;2022-08-07T02:32:42;3.03;;;1.98;;
30543;SDS011;43388;46.308;4.600;2022-08-07T02:35:08;3.97;;;2.10;;
30543;SDS011;43388;46.308;4.600;2022-08-07T02:37:36;3.67;;;2.20;;
30543;SDS011;43388;46.308;4.600;2022-08-07T02:40:04;2.15;;;1.95;;
30543;SDS011;43388;46.308;4.600;2022-08-07T02:42:31;2.53;;;2.25;;
30543;SDS011;43388;46.308;4.600;2022-08-07T02:44:58;4.30;;;2.47;;
30543;SDS011;43388;46.308;4.600;2022-08-07T02:47:25;4.68;;;3.10;;
30543;SDS011;43388;46.308;4.600;2022-08-07T02:49:51;6.97;;;2.28;;
30543;SDS011;43388;46.308;4.600;2022-08-07T02:52:22;3.55;;;2.47;;
30543;SDS011;43388;46.308;4.600;2022-08-07T02:54:49;3.63;;;2.47;;
30543;SDS011;43388;46.308;4.600;2022-08-07T02:57:17;3.38;;;2.30;;
30543;SDS011;43388;46.308;4.600;2022-08-07T02:59:46;5.38;;;2.58;;
30543;SDS011;43388;46.308;4.600;2022-08-07T03:02:14;3.45;;;2.65;;
30543;SDS011;43388;46.308;4.600;2022-08-07T03:04:41;6.50;;;2.53;;
30543;SDS011;43388;46.308;4.600;2022-08-07T03:07:07;2.63;;;2.25;;
30543;SDS011;43388;46.308;4.600;2022-08-07T03:09:34;3.58;;;2.75;;
30543;SDS011;43388;46.308;4.600;2022-08-07T03:12:01;2.67;;;2.20;;
30543;SDS011;43388;46.308;4.600;2022-08-07T03:14:28;4.43;;;2.50;;
30543;SDS011;43388;46.308;4.600;2022-08-07T03:16:55;5.22;;;2.53;;
30543;SDS011;43388;46.308;4.600;2022-08-07T03:19:21;2.85;;;2.60;;
30543;SDS011;43388;46.308;4.600;2022-08-07T03:21:48;3.15;;;2.28;;
30543;SDS011;43388;46.308;4.600;2022-08-07T03:24:14;4.60;;;2.70;;
30543;SDS011;43388;46.308;4.600;2022-08-07T03:26:40;3.30;;;2.60;;
30543;SDS011;43388;46.308;4.600;2022-08-07T03:29:07;2.75;;;2.50;;
30543;SDS011;43388;46.308;4.600;2022-08-07T03:31:34;3.42;;;2.20;;
30543;SDS011;43388;46.308;4.600;2022-08-07T03:34:02;5.43;;;3.25;;
30543;SDS011;43388;46.308;4.600;2022-08-07T03:36:29;2.75;;;2.55;;
30543;SDS011;43388;46.308;4.600;2022-08-07T03:39:04;3.90;;;2.45;;
30543;SDS011;43388;46.308;4.600;2022-08-07T03:41:32;2.40;;;2.10;;
30543;SDS011;43388;46.308;4.600;2022-08-07T03:43:58;2.33;;;2.13;;
30543;SDS011;43388;46.308;4.600;2022-08-07T03:46:25;2.92;;;2.13;;
30543;SDS011;43388;46.308;4.600;2022-08-07T03:48:51;2.55;;;2.03;;
30543;SDS011;43388;46.308;4.600;2022-08-07T03:51:17;6.80;;;2.35;;
30543;SDS011;43388;46.308;4.600;2022-08-07T03:53:45;3.28;;;2.28;;
30543;SDS011;43388;46.308;4.600;2022-08-07T03:56:13;3.78;;;2.25;;
30543;SDS011;43388;46.308;4.600;2022-08-07T03:58:41;3.40;;;2.00;;
30543;SDS011;43388;46.308;4.600;2022-08-07T04:01:10;5.97;;;2.17;;
30543;SDS011;43388;46.308;4.600;2022-08-07T04:03:36;5.25;;;2.47;;
30543;SDS011;43388;46.308;4.600;2022-08-07T04:06:02;2.63;;;1.92;;
30543;SDS011;43388;46.308;4.600;2022-08-07T04:08:32;3.35;;;2.40;;
30543;SDS011;43388;46.308;4.600;2022-08-07T04:10:58;2.67;;;2.47;;
30543;SDS011;43388;46.308;4.600;2022-08-07T04:13:24;3.83;;;2.20;;
30543;SDS011;43388;46.308;4.600;2022-08-07T04:15:51;4.55;;;2.78;;
30543;SDS011;43388;46.308;4.600;2022-08-07T04:18:17;2.60;;;1.90;;
30543;SDS011;43388;46.308;4.600;2022-08-07T04:20:43;2.75;;;2.15;;
30543;SDS011;43388;46.308;4.600;2022-08-07T04:23:09;5.43;;;2.58;;
30543;SDS011;43388;46.308;4.600;2022-08-07T04:25:35;2.58;;;2.30;;
30543;SDS011;43388;46.308;4.600;2022-08-07T04:28:05;2.55;;;2.35;;
30543;SDS011;43388;46.308;4.600;2022-08-07T04:30:32;8.15;;;2.47;;
30543;SDS011;43388;46.308;4.600;2022-08-07T04:32:59;2.35;;;2.15;;
30543;SDS011;43388;46.308;4.600;2022-08-07T04:35:25;2.60;;;2.13;;
30543;SDS011;43388;46.308;4.600;2022-08-07T04:37:51;2.22;;;2.10;;
30543;SDS011;43388;46.308;4.600;2022-08-07T04:40:17;2.97;;;2.47;;
30543;SDS011;43388;46.308;4.600;2022-08-07T04:42:44;2.25;;;2.05;;
30543;SDS011;43388;46.308;4.600;2022-08-07T04:45:10;3.17;;;2.35;;
30543;SDS011;43388;46.308;4.600;2022-08-07T04:47:40;3.72;;;2.50;;
30543;SDS011;43388;46.308;4.600;2022-08-07T04:50:13;2.85;;;1.90;;
30543;SDS011;43388;46.308;4.600;2022-08-07T04:57:50;3.42;;;1.98;;
30543;SDS011;43388;46.308;4.600;2022-08-07T05:00:18;2.45;;;2.00;;
30543;SDS011;43388;46.308;4.600;2022-08-07T05:07:41;3.40;;;2.10;;
30543;SDS011;43388;46.308;4.600;2022-08-07T05:10:44;2.25;;;1.95;;
30543;SDS011;43388;46.308;4.600;2022-08-07T05:13:15;2.42;;;2.20;;
30543;SDS011;43388;46.308;4.600;2022-08-07T05:15:42;7.63;;;2.10;;
30543;SDS011;43388;46.308;4.600;2022-08-07T05:23:18;1.70;;;1.60;;
30543;SDS011;43388;46.308;4.600;2022-08-07T05:25:45;2.08;;;1.75;;
30543;SDS011;43388;46.308;4.600;2022-08-07T05:28:12;2.88;;;1.80;;
30543;SDS011;43388;46.308;4.600;2022-08-07T05:30:39;3.47;;;2.25;;
30543;SDS011;43388;46.308;4.600;2022-08-07T05:33:05;4.88;;;2.17;;
30543;SDS011;43388;46.308;4.600;2022-08-07T05:35:32;4.55;;;2.03;;
30543;SDS011;43388;46.308;4.600;2022-08-07T05:37:59;3.92;;;1.98;;
30543;SDS011;43388;46.308;4.600;2022-08-07T05:40:25;4.55;;;1.95;;
30543;SDS011;43388;46.308;4.600;2022-08-07T05:42:51;1.98;;;1.52;;
30543;SDS011;43388;46.308;4.600;2022-08-07T05:45:18;2.38;;;1.70;;
30543;SDS011;43388;46.308;4.600;2022-08-07T05:47:45;2.92;;;1.80;;
30543;SDS011;43388;46.308;4.600;2022-08-07T05:50:11;1.67;;;1.48;;
30543;SDS011;43388;46.308;4.600;2022-08-07T05:52:39;1.67;;;1.52;;
30543;SDS011;43388;46.308;4.600;2022-08-07T05:55:05;4.63;;;1.70;;
30543;SDS011;43388;46.308;4.600;2022-08-07T05:57:32;1.90;;;1.60;;
30543;SDS011;43388;46.308;4.600;2022-08-07T06:00:00;2.38;;;1.83;;
30543;SDS011;43388;46.308;4.600;2022-08-07T06:02:27;5.38;;;1.92;;
30543;SDS011;43388;46.308;4.600;2022-08-07T06:04:55;1.85;;;1.60;;
30543;SDS011;43388;46.308;4.600;2022-08-07T06:07:22;2.78;;;1.83;;
30543;SDS011;43388;46.308;4.600;2022-08-07T06:09:48;2.05;;;1.38;;
30543;SDS011;43388;46.308;4.600;2022-08-07T06:12:14;3.72;;;1.50;;
30543;SDS011;43388;46.308;4.600;2022-08-07T06:14:41;1.65;;;1.55;;
30543;SDS011;43388;46.308;4.600;2022-08-07T06:17:08;1.70;;;1.60;;
30543;SDS011;43388;46.308;4.600;2022-08-07T06:19:37;1.30;;;1.20;;
30543;SDS011;43388;46.308;4.600;2022-08-07T06:22:03;1.50;;;1.40;;
30543;SDS011;43388;46.308;4.600;2022-08-07T06:24:29;3.90;;;1.52;;
30543;SDS011;43388;46.308;4.600;2022-08-07T06:26:55;2.40;;;1.70;;
30543;SDS011;43388;46.308;4.600;2022-08-07T06:29:25;3.03;;;1.30;;
30543;SDS011;43388;46.308;4.600;2022-08-07T06:31:51;4.68;;;2.25;;
30543;SDS011;43388;46.308;4.600;2022-08-07T06:34:17;1.83;;;1.25;;
30543;SDS011;43388;46.308;4.600;2022-08-07T06:36:43;4.03;;;1.60;;
30543;SDS011;43388;46.308;4.600;2022-08-07T06:39:09;3.88;;;1.75;;
30543;SDS011;43388;46.308;4.600;2022-08-07T06:41:39;2.03;;;1.50;;
30543;SDS011;43388;46.308;4.600;2022-08-07T06:44:06;1.40;;;1.30;;
30543;SDS011;43388;46.308;4.600;2022-08-07T06:46:35;2.65;;;1.50;;
30543;SDS011;43388;46.308;4.600;2022-08-07T06:49:01;1.90;;;1.50;;
30543;SDS011;43388;46.308;4.600;2022-08-07T06:51:28;2.22;;;1.30;;
30543;SDS011;43388;46.308;4.600;2022-08-07T06:53:58;3.92;;;1.20;;
30543;SDS011;43388;46.308;4.600;2022-08-07T06:56:27;3.78;;;1.30;;
30543;SDS011;43388;46.308;4.600;2022-08-07T06:59:06;1.30;;;1.10;;
30543;SDS011;43388;46.308;4.600;2022-08-07T07:01:33;2.67;;;1.63;;
30543;SDS011;43388;46.308;4.600;2022-08-07T07:04:00;3.17;;;1.30;;
30543;SDS011;43388;46.308;4.600;2022-08-07T07:06:27;1.50;;;1.20;;
30543;SDS011;43388;46.308;4.600;2022-08-07T07:08:53;3.22;;;1.27;;
30543;SDS011;43388;46.308;4.600;2022-08-07T07:11:19;5.53;;;1.55;;
30543;SDS011;43388;46.308;4.600;2022-08-07T07:13:46;2.75;;;1.77;;
30543;SDS011;43388;46.308;4.600;2022-08-07T07:16:15;2.60;;;1.23;;
30543;SDS011;43388;46.308;4.600;2022-08-07T07:18:43;2.63;;;1.83;;
30543;SDS011;43388;46.308;4.600;2022-08-07T07:21:23;2.45;;;1.50;;
30543;SDS011;43388;46.308;4.600;2022-08-07T07:23:51;3.33;;;1.30;;
30543;SDS011;43388;46.308;4.600;2022-08-07T07:26:17;2.05;;;1.58;;
30543;SDS011;43388;46.308;4.600;2022-08-07T07:28:54;4.75;;;1.60;;
30543;SDS011;43388;46.308;4.600;2022-08-07T07:31:22;1.67;;;1.58;;
30543;SDS011;43388;46.308;4.600;2022-08-07T07:33:51;4.10;;;1.40;;
30543;SDS011;43388;46.308;4.600;2022-08-07T07:36:19;1.38;;;1.27;;
30543;SDS011;43388;46.308;4.600;2022-08-07T07:38:45;2.40;;;1.20;;
30543;SDS011;43388;46.308;4.600;2022-08-07T07:41:11;1.90;;;1.30;;
30543;SDS011;43388;46.308;4.600;2022-08-07T07:43:39;4.32;;;1.50;;
30543;SDS011;43388;46.308;4.600;2022-08-07T07:46:06;4.68;;;1.45;;
30543;SDS011;43388;46.308;4.600;2022-08-07T07:48:33;2.92;;;1.50;;
30543;SDS011;43388;46.308;4.600;2022-08-07T07:50:59;2.53;;;1.60;;
30543;SDS011;43388;46.308;4.600;2022-08-07T07:53:26;2.60;;;1.60;;
30543;SDS011;43388;46.308;4.600;2022-08-07T07:55:54;2.83;;;2.03;;
30543;SDS011;43388;46.308;4.600;2022-08-07T07:58:22;3.22;;;1.60;;
30543;SDS011;43388;46.308;4.600;2022-08-07T08:00:48;3.28;;;1.83;;
30543;SDS011;43388;46.308;4.600;2022-08-07T08:03:18;1.90;;;1.70;;
30543;SDS011;43388;46.308;4.600;2022-08-07T08:05:45;4.25;;;2.05;;
30543;SDS011;43388;46.308;4.600;2022-08-07T08:08:12;2.83;;;1.77;;
30543;SDS011;43388;46.308;4.600;2022-08-07T08:10:39;2.17;;;1.92;;
30543;SDS011;43388;46.308;4.600;2022-08-07T08:13:06;5.63;;;1.92;;
30543;SDS011;43388;46.308;4.600;2022-08-07T08:15:34;1.90;;;1.80;;
30543;SDS011;43388;46.308;4.600;2022-08-07T08:18:01;3.22;;;1.98;;
30543;SDS011;43388;46.308;4.600;2022-08-07T08:20:29;2.22;;;1.90;;
30543;SDS011;43388;46.308;4.600;2022-08-07T08:22:56;4.07;;;1.88;;
30543;SDS011;43388;46.308;4.600;2022-08-07T08:25:41;2.40;;;2.20;;
30543;SDS011;43388;46.308;4.600;2022-08-07T08:28:27;2.38;;;2.05;;
30543;SDS011;43388;46.308;4.600;2022-08-07T08:30:56;2.92;;;2.00;;
30543;SDS011;43388;46.308;4.600;2022-08-07T08:33:32;4.65;;;2.10;;
30543;SDS011;43388;46.308;4.600;2022-08-07T08:35:58;2.90;;;2.10;;
30543;SDS011;43388;46.308;4.600;2022-08-07T08:38:27;2.25;;;2.10;;
30543;SDS011;43388;46.308;4.600;2022-08-07T08:46:17;4.63;;;2.20;;
30543;SDS011;43388;46.308;4.600;2022-08-07T08:48:50;4.82;;;2.70;;
30543;SDS011;43388;46.308;4.600;2022-08-07T08:51:21;4.28;;;2.05;;
30543;SDS011;43388;46.308;4.600;2022-08-07T08:56:42;4.20;;;2.40;;
30543;SDS011;43388;46.308;4.600;2022-08-07T08:59:11;6.33;;;2.63;;
30543;SDS011;43388;46.308;4.600;2022-08-07T09:04:16;2.45;;;2.25;;
30543;SDS011;43388;46.308;4.600;2022-08-07T09:09:31;3.47;;;2.03;;
30543;SDS011;43388;46.308;4.600;2022-08-07T09:12:04;3.33;;;2.28;;
30543;SDS011;43388;46.308;4.600;2022-08-07T09:14:37;2.60;;;2.40;;
30543;SDS011;43388;46.308;4.600;2022-08-07T09:22:20;2.25;;;2.08;;
30543;SDS011;43388;46.308;4.600;2022-08-07T09:30:07;3.58;;;2.03;;
30543;SDS011;43388;46.308;4.600;2022-08-07T09:32:49;3.40;;;2.10;;
30543;SDS011;43388;46.308;4.600;2022-08-07T09:37:44;2.13;;;2.03;;
30543;SDS011;43388;46.308;4.600;2022-08-07T09:53:33;2.13;;;1.90;;
30543;SDS011;43388;46.308;4.600;2022-08-07T10:09:15;2.40;;;2.10;;
30543;SDS011;43388;46.308;4.600;2022-08-07T10:15:03;3.17;;;2.05;;
30543;SDS011;43388;46.308;4.600;2022-08-07T10:41:45;2.35;;;1.77;;
30543;SDS011;43388;46.308;4.600;2022-08-07T10:44:26;2.72;;;1.83;;
30543;SDS011;43388;46.308;4.600;2022-08-07T10:46:58;2.10;;;1.90;;
30543;SDS011;43388;46.308;4.600;2022-08-07T10:51:56;2.92;;;1.83;;
30543;SDS011;43388;46.308;4.600;2022-08-07T10:54:40;1.75;;;1.65;;
30543;SDS011;43388;46.308;4.600;2022-08-07T11:02:32;2.05;;;1.85;;
30543;SDS011;43388;46.308;4.600;2022-08-07T11:10:31;1.92;;;1.83;;
30543;SDS011;43388;46.308;4.600;2022-08-07T11:15:38;1.60;;;1.50;;
30543;SDS011;43388;46.308;4.600;2022-08-07T11:18:09;2.35;;;1.67;;
30543;SDS011;43388;46.308;4.600;2022-08-07T11:20:53;2.60;;;1.80;;
30543;SDS011;43388;46.308;4.600;2022-08-07T11:23:22;2.42;;;1.75;;
30543;SDS011;43388;46.308;4.600;2022-08-07T11:25:52;2.05;;;1.95;;
30543;SDS011;43388;46.308;4.600;2022-08-07T11:28:24;3.47;;;1.75;;
30543;SDS011;43388;46.308;4.600;2022-08-07T11:41:36;2.95;;;1.55;;
30543;SDS011;43388;46.308;4.600;2022-08-07T11:44:08;2.22;;;1.90;;
30543;SDS011;43388;46.308;4.600;2022-08-07T12:02:05;3.78;;;2.20;;
30543;SDS011;43388;46.308;4.600;2022-08-07T12:07:25;2.08;;;1.70;;
30543;SDS011;43388;46.308;4.600;2022-08-07T12:10:01;5.07;;;1.80;;
30543;SDS011;43388;46.308;4.600;2022-08-07T12:15:02;2.28;;;2.08;;
30543;SDS011;43388;46.308;4.600;2022-08-07T12:17:50;2.58;;;1.75;;
30543;SDS011;43388;46.308;4.600;2022-08-07T12:20:29;1.98;;;1.75;;
30543;SDS011;43388;46.308;4.600;2022-08-07T12:25:47;1.85;;;1.50;;
30543;SDS011;43388;46.308;4.600;2022-08-07T12:28:22;2.45;;;2.08;;
30543;SDS011;43388;46.308;4.600;2022-08-07T12:30:50;2.30;;;1.83;;
30543;SDS011;43388;46.308;4.600;2022-08-07T12:33:18;1.90;;;1.70;;
30543;SDS011;43388;46.308;4.600;2022-08-07T12:35:47;4.80;;;1.77;;
30543;SDS011;43388;46.308;4.600;2022-08-07T12:38:14;2.47;;;2.03;;
30543;SDS011;43388;46.308;4.600;2022-08-07T12:40:41;2.13;;;1.83;;
30543;SDS011;43388;46.308;4.600;2022-08-07T12:43:08;1.65;;;1.55;;
30543;SDS011;43388;46.308;4.600;2022-08-07T12:45:48;1.80;;;1.50;;
30543;SDS011;43388;46.308;4.600;2022-08-07T12:50:52;2.22;;;1.70;;
30543;SDS011;43388;46.308;4.600;2022-08-07T12:56:20;3.17;;;1.80;;
30543;SDS011;43388;46.308;4.600;2022-08-07T12:58:49;1.70;;;1.60;;
30543;SDS011;43388;46.308;4.600;2022-08-07T13:19:42;2.20;;;2.00;;
30543;SDS011;43388;46.308;4.600;2022-08-07T13:22:18;1.80;;;1.70;;
30543;SDS011;43388;46.308;4.600;2022-08-07T13:24:57;4.55;;;1.70;;
30543;SDS011;43388;46.308;4.600;2022-08-07T13:27:30;1.70;;;1.60;;
30543;SDS011;43388;46.308;4.600;2022-08-07T13:30:03;2.67;;;1.80;;
30543;SDS011;43388;46.308;4.600;2022-08-07T13:32:32;2.72;;;1.88;;
30543;SDS011;43388;46.308;4.600;2022-08-07T13:35:46;3.95;;;1.60;;
30543;SDS011;43388;46.308;4.600;2022-08-07T13:38:01;1.83;;;1.60;;
30543;SDS011;43388;46.308;4.600;2022-08-07T13:40:30;2.13;;;1.70;;
30543;SDS011;43388;46.308;4.600;2022-08-07T13:42:58;2.08;;;1.48;;
30543;SDS011;43388;46.308;4.600;2022-08-07T13:45:26;4.20;;;1.70;;
30543;SDS011;43388;46.308;4.600;2022-08-07T13:47:54;2.72;;;1.70;;
30543;SDS011;43388;46.308;4.600;2022-08-07T13:50:22;1.60;;;1.50;;
30543;SDS011;43388;46.308;4.600;2022-08-07T13:52:48;1.85;;;1.75;;
30543;SDS011;43388;46.308;4.600;2022-08-07T13:55:16;1.95;;;1.73;;
30543;SDS011;43388;46.308;4.600;2022-08-07T13:57:45;2.17;;;1.50;;
30543;SDS011;43388;46.308;4.600;2022-08-07T14:00:14;1.88;;;1.77;;
30543;SDS011;43388;46.308;4.600;2022-08-07T14:02:41;1.98;;;1.77;;
30543;SDS011;43388;46.308;4.600;2022-08-07T14:05:12;1.70;;;1.60;;
30543;SDS011;43388;46.308;4.600;2022-08-07T14:07:39;2.20;;;1.63;;
30543;SDS011;43388;46.308;4.600;2022-08-07T14:10:06;2.80;;;2.15;;
30543;SDS011;43388;46.308;4.600;2022-08-07T14:12:52;3.63;;;1.70;;
30543;SDS011;43388;46.308;4.600;2022-08-07T14:15:34;1.95;;;1.63;;
30543;SDS011;43388;46.308;4.600;2022-08-07T14:18:03;2.85;;;1.65;;
30543;SDS011;43388;46.308;4.600;2022-08-07T14:20:29;2.00;;;1.60;;
30543;SDS011;43388;46.308;4.600;2022-08-07T14:23:05;3.00;;;1.80;;
30543;SDS011;43388;46.308;4.600;2022-08-07T14:25:32;3.47;;;1.75;;
30543;SDS011;43388;46.308;4.600;2022-08-07T14:28:02;2.20;;;1.50;;
30543;SDS011;43388;46.308;4.600;2022-08-07T14:30:29;1.95;;;1.60;;
30543;SDS011;43388;46.308;4.600;2022-08-07T14:32:56;3.25;;;1.80;;
30543;SDS011;43388;46.308;4.600;2022-08-07T14:35:23;2.90;;;1.50;;
30543;SDS011;43388;46.308;4.600;2022-08-07T14:37:50;1.70;;;1.60;;
30543;SDS011;43388;46.308;4.600;2022-08-07T14:40:21;2.28;;;1.63;;
30543;SDS011;43388;46.308;4.600;2022-08-07T14:42:55;4.35;;;1.50;;
30543;SDS011;43388;46.308;4.600;2022-08-07T14:45:23;1.75;;;1.40;;
30543;SDS011;43388;46.308;4.600;2022-08-07T14:47:50;1.60;;;1.50;;
30543;SDS011;43388;46.308;4.600;2022-08-07T14:50:16;1.70;;;1.60;;
30543;SDS011;43388;46.308;4.600;2022-08-07T14:52:44;1.38;;;1.38;;
30543;SDS011;43388;46.308;4.600;2022-08-07T14:55:12;2.00;;;1.90;;
30543;SDS011;43388;46.308;4.600;2022-08-07T14:57:39;5.80;;;1.90;;
30543;SDS011;43388;46.308;4.600;2022-08-07T15:00:06;3.25;;;1.45;;
30543;SDS011;43388;46.308;4.600;2022-08-07T15:02:33;3.72;;;1.58;;
30543;SDS011;43388;46.308;4.600;2022-08-07T15:05:01;2.22;;;1.60;;
30543;SDS011;43388;46.308;4.600;2022-08-07T15:07:27;1.75;;;1.63;;
30543;SDS011;43388;46.308;4.600;2022-08-07T15:09:54;1.95;;;1.70;;
30543;SDS011;43388;46.308;4.600;2022-08-07T15:12:22;2.60;;;1.60;;
30543;SDS011;43388;46.308;4.600;2022-08-07T15:14:49;3.70;;;1.92;;
30543;SDS011;43388;46.308;4.600;2022-08-07T15:17:18;1.88;;;1.58;;
30543;SDS011;43388;46.308;4.600;2022-08-07T15:19:49;1.48;;;1.38;;
30543;SDS011;43388;46.308;4.600;2022-08-07T15:22:17;2.97;;;1.83;;
30543;SDS011;43388;46.308;4.600;2022-08-07T15:24:46;3.17;;;1.50;;
30543;SDS011;43388;46.308;4.600;2022-08-07T15:29:40;1.95;;;1.50;;
30543;SDS011;43388;46.308;4.600;2022-08-07T15:32:06;1.73;;;1.58;;
30543;SDS011;43388;46.308;4.600;2022-08-07T15:34:37;3.67;;;1.77;;
30543;SDS011;43388;46.308;4.600;2022-08-07T15:37:03;1.45;;;1.35;;
30543;SDS011;43388;46.308;4.600;2022-08-07T15:39:33;2.47;;;1.50;;
30543;SDS011;43388;46.308;4.600;2022-08-07T15:42:01;3.22;;;1.35;;
30543;SDS011;43388;46.308;4.600;2022-08-07T15:44:29;1.60;;;1.50;;
30543;SDS011;43388;46.308;4.600;2022-08-07T15:46:56;1.40;;;1.30;;
30543;SDS011;43388;46.308;4.600;2022-08-07T15:49:27;1.67;;;1.27;;
30543;SDS011;43388;46.308;4.600;2022-08-07T15:51:54;2.42;;;1.30;;
30543;SDS011;43388;46.308;4.600;2022-08-07T15:54:20;2.25;;;1.50;;
30543;SDS011;43388;46.308;4.600;2022-08-07T15:56:48;2.53;;;1.40;;
30543;SDS011;43388;46.308;4.600;2022-08-07T15:59:14;1.77;;;1.65;;
30543;SDS011;43388;46.308;4.600;2022-08-07T16:01:48;1.83;;;1.23;;
30543;SDS011;43388;46.308;4.600;2022-08-07T16:04:14;3.45;;;1.38;;
30543;SDS011;43388;46.308;4.600;2022-08-07T16:06:51;2.70;;;1.80;;
30543;SDS011;43388;46.308;4.600;2022-08-07T16:24:57;2.70;;;1.40;;
30543;SDS011;43388;46.308;4.600;2022-08-07T16:27:32;2.03;;;1.50;;
30543;SDS011;43388;46.308;4.600;2022-08-07T16:32:32;1.17;;;1.17;;
30543;SDS011;43388;46.308;4.600;2022-08-07T16:35:10;2.65;;;1.70;;
30543;SDS011;43388;46.308;4.600;2022-08-07T16:56:16;5.97;;;1.60;;
30543;SDS011;43388;46.308;4.600;2022-08-07T17:09:11;1.65;;;1.55;;
30543;SDS011;43388;46.308;4.600;2022-08-07T17:11:47;3.50;;;1.42;;
30543;SDS011;43388;46.308;4.600;2022-08-07T17:14:17;2.00;;;1.38;;
30543;SDS011;43388;46.308;4.600;2022-08-07T17:16:49;2.58;;;1.70;;
30543;SDS011;43388;46.308;4.600;2022-08-07T17:21:46;2.30;;;1.67;;
30543;SDS011;43388;46.308;4.600;2022-08-07T17:26:57;4.45;;;1.52;;
30543;SDS011;43388;46.308;4.600;2022-08-07T17:32:20;2.05;;;1.58;;
30543;SDS011;43388;46.308;4.600;2022-08-07T17:34:48;1.60;;;1.50;;
30543;SDS011;43388;46.308;4.600;2022-08-07T17:37:19;2.10;;;1.48;;
30543;SDS011;43388;46.308;4.600;2022-08-07T17:39:51;1.60;;;1.50;;
30543;SDS011;43388;46.308;4.600;2022-08-07T17:42:21;2.75;;;1.77;;
30543;SDS011;43388;46.308;4.600;2022-08-07T17:44:55;2.40;;;1.75;;
30543;SDS011;43388;46.308;4.600;2022-08-07T17:47:33;1.40;;;1.30;;
30543;SDS011;43388;46.308;4.600;2022-08-07T17:50:01;1.55;;;1.45;;
30543;SDS011;43388;46.308;4.600;2022-08-07T17:52:35;2.45;;;1.70;;
30543;SDS011;43388;46.308;4.600;2022-08-07T18:00:04;2.65;;;1.80;;
30543;SDS011;43388;46.308;4.600;2022-08-07T18:02:39;2.45;;;2.17;;
30543;SDS011;43388;46.308;4.600;2022-08-07T18:07:54;3.17;;;1.50;;
30543;SDS011;43388;46.308;4.600;2022-08-07T18:10:29;3.05;;;1.80;;
30543;SDS011;43388;46.308;4.600;2022-08-07T18:18:11;3.72;;;1.52;;
30543;SDS011;43388;46.308;4.600;2022-08-07T18:20:39;3.13;;;1.52;;
30543;SDS011;43388;46.308;4.600;2022-08-07T18:23:08;1.58;;;1.48;;
30543;SDS011;43388;46.308;4.600;2022-08-07T18:25:34;2.15;;;1.65;;
30543;SDS011;43388;46.308;4.600;2022-08-07T18:28:21;2.13;;;1.70;;
30543;SDS011;43388;46.308;4.600;2022-08-07T18:49:31;2.22;;;1.40;;
30543;SDS011;43388;46.308;4.600;2022-08-07T18:54:41;4.45;;;1.70;;
30543;SDS011;43388;46.308;4.600;2022-08-07T19:12:18;5.35;;;2.95;;
30543;SDS011;43388;46.308;4.600;2022-08-07T19:17:14;1.60;;;1.50;;
30543;SDS011;43388;46.308;4.600;2022-08-07T19:24:54;2.63;;;1.70;;
30543;SDS011;43388;46.308;4.600;2022-08-07T19:27:21;1.67;;;1.52;;
30543;SDS011;43388;46.308;4.600;2022-08-07T19:29:51;1.80;;;1.70;;
30543;SDS011;43388;46.308;4.600;2022-08-07T19:32:19;1.80;;;1.70;;
30543;SDS011;43388;46.308;4.600;2022-08-07T19:34:48;3.45;;;1.63;;
30543;SDS011;43388;46.308;4.600;2022-08-07T19:37:16;2.78;;;1.50;;
30543;SDS011;43388;46.308;4.600;2022-08-07T19:39:46;2.20;;;1.50;;
30543;SDS011;43388;46.308;4.600;2022-08-07T19:42:12;1.75;;;1.65;;